HBBA/BJM METAR and TAF weather

Enter ICAO airport designator
Station Type Date Time Source
HBBA METAR 2019/04/19 18:00 UTC NOAA

HBBA 191800Z 18004KT 9999 FEW030 26/20 Q 1011 NOSIG


Station Type Date Time Source
HBBA Decoded METAR 2019/04/19 18:00 UTC NOAA

Bujumbura, Burundi (HBBA) 03-19S 029-19E 783M
Apr 19, 2019 - 02:00 PM EDT / 2019.04.19 1800 UTC
Wind: from the S (180 degrees) at 5 MPH (4 KT):0
Visibility: greater than 7 mile(s):0
Sky conditions: mostly clear
Temperature: 78 F (26 C)
Dew Point: 68 F (20 C)
Relative Humidity: 69%
Pressure (altimeter): 29.85 in. Hg (1011 hPa)
ob: HBBA 191800Z 18004KT 9999 FEW030 26/20 Q 1011 NOSIG
cycle: 18

Station Type Date Time Source
HBBA TAF 2019/04/19 18:54 UTC NOAA

TAF TAF HBBA 191700Z 1918/2024 36004KT 9999 FEW030 SCT100
BECMG 2007/2009 18012G22KT 9999 FEW025 BKN100 PROB30
TEMPO 2012/2018 08015G26KT 7000 TSRA SCT025CB BKN100
BECMG 2019/2021 00000KT 9999 FEW030 SCT100

Example: see airport list